Time;durP1;ratioP1;P1;durP2;ratioP2;P2;SDS_P1;SDS_P2;PMS_P1;PMS_P2;Temp;Humidity;BMP_temperature;BMP_pressure;BME280_temperature;BME280_humidity;BME280_pressure;Samples;Min_cycle;Max_cycle;Signal;HPM_P1;HPM_P2
2021/04/22 00:01:39;;;;;;;;;;;20.70;48.20;;;;;;5031273;28;19925;-59
2021/04/22 00:04:06;;;;;;;;;;;20.60;48.20;;;;;;5042034;28;19925;-60
2021/04/22 00:06:32;;;;;;;;;;;20.60;48.30;;;;;;5032439;28;19936;-60
2021/04/22 00:08:58;;;;;;;;;;;20.60;48.20;;;;;;5045670;28;19959;-59
2021/04/22 00:11:25;;;;;;;;;;;20.60;48.30;;;;;;5047679;28;20044;-59
2021/04/22 00:13:51;;;;;;;;;;;20.60;48.30;;;;;;5045285;28;19932;-58
2021/04/22 00:16:17;;;;;;;;;;;20.60;48.30;;;;;;5036760;28;19937;-59
2021/04/22 00:18:43;;;;;;;;;;;20.60;48.30;;;;;;5041040;28;19991;-58
2021/04/22 00:21:11;;;;;;;;;;;20.60;48.30;;;;;;5039243;28;19929;-59
2021/04/22 00:23:37;;;;;;;;;;;20.60;48.30;;;;;;5021172;28;20517;-60
2021/04/22 00:26:03;;;;;;;;;;;20.50;48.20;;;;;;5037209;28;19933;-58
2021/04/22 00:28:29;;;;;;;;;;;20.50;48.30;;;;;;5042239;28;19925;-59
2021/04/22 00:30:56;;;;;;;;;;;20.50;48.30;;;;;;5047192;28;20416;-60
2021/04/22 00:33:22;;;;;;;;;;;20.50;48.30;;;;;;5034492;28;20401;-59
2021/04/22 00:35:50;;;;;;;;;;;20.40;48.30;;;;;;5039201;28;19956;-58
2021/04/22 00:38:17;;;;;;;;;;;20.50;48.30;;;;;;5033161;28;19932;-59
2021/04/22 00:40:43;;;;;;;;;;;20.40;48.20;;;;;;5045331;28;19937;-58
2021/04/22 00:43:15;;;;;;;;;;;20.40;48.30;;;;;;5038921;28;19951;-59
2021/04/22 00:45:42;;;;;;;;;;;20.40;48.30;;;;;;5045392;28;19948;-58
2021/04/22 00:48:17;;;;;;;;;;;20.40;48.30;;;;;;5029635;28;19932;-58
2021/04/22 00:50:43;;;;;;;;;;;20.40;48.20;;;;;;5043785;28;19928;-58
2021/04/22 00:53:10;;;;;;;;;;;20.40;48.30;;;;;;5040259;28;19925;-59
2021/04/22 00:55:36;;;;;;;;;;;20.40;48.30;;;;;;5062087;28;20435;-58
2021/04/22 00:58:03;;;;;;;;;;;20.40;48.30;;;;;;5050365;28;19925;-59
2021/04/22 01:00:33;;;;;;;;;;;20.30;48.20;;;;;;5061759;28;20465;-60
2021/04/22 01:03:00;;;;;;;;;;;20.30;48.20;;;;;;5062046;28;19994;-59
2021/04/22 01:05:29;;;;;;;;;;;20.30;48.20;;;;;;5059897;28;19924;-59
2021/04/22 01:07:55;;;;;;;;;;;20.30;48.20;;;;;;5053197;28;21934;-58
2021/04/22 01:10:22;;;;;;;;;;;20.30;48.30;;;;;;5058592;28;19932;-58
2021/04/22 01:12:48;;;;;;;;;;;20.30;48.30;;;;;;5054958;28;19925;-58
2021/04/22 01:15:18;;;;;;;;;;;20.20;48.20;;;;;;5059084;28;19930;-58
2021/04/22 01:17:45;;;;;;;;;;;20.30;48.30;;;;;;5063524;28;20296;-59
2021/04/22 01:20:13;;;;;;;;;;;20.20;48.20;;;;;;5058116;28;20428;-59
2021/04/22 01:22:39;;;;;;;;;;;20.20;48.20;;;;;;5065898;28;19932;-59
2021/04/22 01:25:06;;;;;;;;;;;20.20;48.20;;;;;;5055798;28;19932;-59
2021/04/22 01:27:32;;;;;;;;;;;20.20;48.20;;;;;;5059398;28;20446;-59
2021/04/22 01:29:59;;;;;;;;;;;20.20;48.20;;;;;;5051213;28;19929;-58
2021/04/22 01:32:25;;;;;;;;;;;20.20;48.20;;;;;;5060168;28;19928;-58
2021/04/22 01:34:51;;;;;;;;;;;20.20;48.30;;;;;;5065579;28;19931;-58
2021/04/22 01:37:18;;;;;;;;;;;20.10;48.20;;;;;;5064947;28;19933;-58
2021/04/22 01:39:44;;;;;;;;;;;20.10;48.20;;;;;;5053139;28;20376;-58
2021/04/22 01:42:10;;;;;;;;;;;20.20;48.20;;;;;;5062685;28;19931;-59
2021/04/22 01:44:36;;;;;;;;;;;20.10;48.20;;;;;;5048661;28;19956;-58
2021/04/22 01:47:02;;;;;;;;;;;20.10;48.80;;;;;;5062375;28;20046;-58
2021/04/22 01:49:29;;;;;;;;;;;20.10;48.20;;;;;;5066670;28;19929;-59
2021/04/22 01:51:55;;;;;;;;;;;20.10;48.20;;;;;;5063296;28;19928;-58
2021/04/22 01:54:21;;;;;;;;;;;20.10;48.20;;;;;;5033983;28;20432;-59
2021/04/22 01:56:47;;;;;;;;;;;20.10;48.20;;;;;;5046758;28;19937;-59
2021/04/22 01:59:13;;;;;;;;;;;20.10;48.20;;;;;;5046147;28;19951;-58
2021/04/22 02:01:39;;;;;;;;;;;20.10;48.20;;;;;;5043373;28;19933;-59
2021/04/22 02:04:06;;;;;;;;;;;20.00;48.20;;;;;;5035742;28;19939;-58
2021/04/22 02:06:32;;;;;;;;;;;20.00;48.20;;;;;;5042319;28;19929;-58
2021/04/22 02:08:58;;;;;;;;;;;20.00;48.20;;;;;;5032649;28;19931;-58
2021/04/22 02:11:24;;;;;;;;;;;20.00;48.20;;;;;;5039578;28;20443;-59
2021/04/22 02:13:51;;;;;;;;;;;20.00;48.20;;;;;;5040739;28;20278;-59
2021/04/22 02:16:17;;;;;;;;;;;20.00;48.20;;;;;;5040374;28;20484;-58
2021/04/22 02:18:43;;;;;;;;;;;20.00;48.20;;;;;;5045959;28;20162;-59
2021/04/22 02:21:10;;;;;;;;;;;19.90;48.20;;;;;;5037241;28;20321;-59
2021/04/22 02:23:36;;;;;;;;;;;20.00;48.30;;;;;;5037185;28;20011;-58
2021/04/22 02:26:02;;;;;;;;;;;20.00;48.30;;;;;;5036161;28;19975;-60
2021/04/22 02:28:28;;;;;;;;;;;19.90;48.20;;;;;;5040138;28;19936;-60
2021/04/22 02:30:54;;;;;;;;;;;19.90;48.20;;;;;;5039440;28;20044;-58
2021/04/22 02:33:20;;;;;;;;;;;19.90;48.20;;;;;;5043670;28;19929;-58
2021/04/22 02:35:48;;;;;;;;;;;19.90;48.20;;;;;;5041567;28;20350;-58
2021/04/22 02:38:15;;;;;;;;;;;19.90;48.20;;;;;;5049169;28;20373;-58
2021/04/22 02:40:42;;;;;;;;;;;19.90;48.20;;;;;;5027329;28;20401;-60
2021/04/22 02:43:10;;;;;;;;;;;19.90;48.30;;;;;;5045756;28;19932;-58
2021/04/22 02:45:38;;;;;;;;;;;19.80;48.20;;;;;;5032228;28;19936;-58
2021/04/22 02:48:04;;;;;;;;;;;19.80;48.20;;;;;;5047567;28;19925;-58
2021/04/22 02:50:32;;;;;;;;;;;19.90;48.20;;;;;;5039201;28;20282;-60
2021/04/22 02:52:58;;;;;;;;;;;19.90;48.20;;;;;;5049803;28;19932;-60
2021/04/22 02:55:25;;;;;;;;;;;19.80;48.20;;;;;;5042639;28;20415;-58
2021/04/22 02:58:11;;;;;;;;;;;19.80;48.30;;;;;;5017869;28;19925;-59
2021/04/22 03:00:38;;;;;;;;;;;19.80;48.30;;;;;;5035055;28;19936;-59
2021/04/22 03:03:05;;;;;;;;;;;19.80;48.30;;;;;;5044140;28;19932;-59
2021/04/22 03:05:31;;;;;;;;;;;19.80;48.20;;;;;;5038107;28;19941;-59
2021/04/22 03:07:57;;;;;;;;;;;19.80;48.30;;;;;;5041989;28;20462;-61
2021/04/22 03:10:24;;;;;;;;;;;19.80;48.20;;;;;;5040747;28;19978;-59
2021/04/22 03:12:51;;;;;;;;;;;19.70;48.80;;;;;;5049239;28;19931;-58
2021/04/22 03:15:17;;;;;;;;;;;19.70;48.20;;;;;;5048294;28;19937;-60
2021/04/22 03:17:44;;;;;;;;;;;19.80;48.30;;;;;;5040013;28;19928;-59
2021/04/22 03:20:11;;;;;;;;;;;19.70;48.20;;;;;;5040601;28;19951;-58
2021/04/22 03:22:38;;;;;;;;;;;19.70;48.20;;;;;;5048665;28;19932;-59
2021/04/22 03:25:05;;;;;;;;;;;19.70;48.80;;;;;;5048166;28;20424;-58
2021/04/22 03:27:31;;;;;;;;;;;19.70;48.20;;;;;;5037137;28;19932;-59
2021/04/22 03:29:57;;;;;;;;;;;19.70;48.20;;;;;;5041161;28;19925;-58
2021/04/22 03:32:29;;;;;;;;;;;19.70;48.20;;;;;;5049116;28;19925;-59
2021/04/22 03:34:55;;;;;;;;;;;19.70;48.20;;;;;;5047873;28;20727;-58
2021/04/22 03:37:21;;;;;;;;;;;19.70;48.30;;;;;;5035655;28;20595;-58
2021/04/22 03:39:47;;;;;;;;;;;19.60;48.10;;;;;;5045814;28;19940;-58
2021/04/22 03:42:17;;;;;;;;;;;19.70;48.20;;;;;;5032689;28;19975;-58
2021/04/22 03:44:45;;;;;;;;;;;19.60;48.10;;;;;;5046272;28;19933;-59
2021/04/22 03:47:12;;;;;;;;;;;19.60;48.10;;;;;;5047623;28;19936;-58
2021/04/22 03:49:38;;;;;;;;;;;19.60;48.20;;;;;;5047527;28;19998;-59
2021/04/22 03:52:05;;;;;;;;;;;19.50;48.10;;;;;;5015978;28;19939;-58
2021/04/22 03:54:31;;;;;;;;;;;19.60;48.20;;;;;;5060852;28;19929;-59
2021/04/22 03:56:58;;;;;;;;;;;19.50;48.20;;;;;;5058369;28;19929;-60
2021/04/22 03:59:24;;;;;;;;;;;19.60;48.20;;;;;;5059049;28;20374;-58
2021/04/22 04:01:50;;;;;;;;;;;19.60;48.20;;;;;;5054021;28;20408;-58
2021/04/22 04:04:17;;;;;;;;;;;19.50;48.10;;;;;;5058178;28;19925;-59
2021/04/22 04:06:43;;;;;;;;;;;19.50;48.20;;;;;;5065937;28;19924;-58
2021/04/22 04:09:09;;;;;;;;;;;19.50;48.30;;;;;;5056965;28;20305;-58
2021/04/22 04:11:35;;;;;;;;;;;19.50;48.30;;;;;;5056203;28;19928;-59
2021/04/22 04:14:02;;;;;;;;;;;19.50;48.30;;;;;;5054434;28;19947;-59
2021/04/22 04:16:28;;;;;;;;;;;19.50;48.30;;;;;;5058714;28;19925;-60
2021/04/22 04:18:55;;;;;;;;;;;19.50;48.30;;;;;;5054348;28;19936;-59
2021/04/22 04:21:21;;;;;;;;;;;19.50;48.20;;;;;;5064037;28;20017;-58
2021/04/22 04:23:48;;;;;;;;;;;19.50;48.20;;;;;;5057289;28;19936;-59
2021/04/22 04:26:14;;;;;;;;;;;19.50;48.20;;;;;;5065614;28;19925;-58
2021/04/22 04:28:40;;;;;;;;;;;19.50;48.20;;;;;;5052951;28;19932;-58
2021/04/22 04:31:07;;;;;;;;;;;19.50;48.20;;;;;;5061550;28;20426;-59
2021/04/22 04:33:33;;;;;;;;;;;19.40;48.20;;;;;;5061454;28;20289;-59
2021/04/22 04:35:59;;;;;;;;;;;19.50;48.20;;;;;;5057931;28;19956;-59
2021/04/22 04:38:25;;;;;;;;;;;19.40;48.20;;;;;;5062890;28;19931;-60
2021/04/22 04:40:52;;;;;;;;;;;19.40;48.40;;;;;;5063458;28;19982;-60
2021/04/22 04:43:18;;;;;;;;;;;19.40;48.30;;;;;;5061901;28;19932;-59
2021/04/22 04:45:44;;;;;;;;;;;19.40;48.20;;;;;;5064309;28;19925;-60
2021/04/22 04:48:10;;;;;;;;;;;19.40;47.50;;;;;;5051547;28;20553;-59
2021/04/22 04:50:37;;;;;;;;;;;19.40;47.60;;;;;;5062612;28;19932;-60
2021/04/22 04:53:03;;;;;;;;;;;19.40;47.60;;;;;;5055817;28;20294;-60
2021/04/22 04:55:29;;;;;;;;;;;19.30;47.70;;;;;;5042234;28;19940;-60
2021/04/22 04:57:55;;;;;;;;;;;19.40;47.70;;;;;;5046207;28;19983;-59
2021/04/22 05:00:21;;;;;;;;;;;19.40;47.70;;;;;;5045335;28;19983;-60
2021/04/22 05:02:48;;;;;;;;;;;19.40;47.70;;;;;;5046432;28;19933;-58
2021/04/22 05:05:15;;;;;;;;;;;19.40;47.80;;;;;;5043994;28;19933;-58
2021/04/22 05:07:41;;;;;;;;;;;19.30;47.70;;;;;;5032894;28;19925;-58
2021/04/22 05:10:08;;;;;;;;;;;19.40;47.70;;;;;;5043823;28;20413;-59
2021/04/22 05:12:34;;;;;;;;;;;19.30;47.50;;;;;;5034450;28;19925;-59
2021/04/22 05:15:01;;;;;;;;;;;19.40;47.60;;;;;;5043577;28;19924;-59
2021/04/22 05:17:27;;;;;;;;;;;19.30;47.50;;;;;;5045421;28;19925;-58
2021/04/22 05:19:53;;;;;;;;;;;19.30;47.40;;;;;;5044209;28;20634;-59
2021/04/22 05:22:19;;;;;;;;;;;19.30;47.80;;;;;;5045984;28;20017;-58
2021/04/22 05:24:48;;;;;;;;;;;19.30;48.50;;;;;;5046205;28;19987;-59
2021/04/22 05:27:14;;;;;;;;;;;19.30;48.90;;;;;;5041200;28;19928;-59
2021/04/22 05:29:40;;;;;;;;;;;19.30;48.80;;;;;;5042879;28;19925;-59
2021/04/22 05:32:07;;;;;;;;;;;19.30;48.70;;;;;;5044622;28;19939;-59
2021/04/22 05:34:33;;;;;;;;;;;19.40;48.60;;;;;;5043324;28;19932;-59
2021/04/22 05:36:59;;;;;;;;;;;19.30;48.20;;;;;;5045310;28;19929;-58
2021/04/22 05:39:26;;;;;;;;;;;19.30;48.40;;;;;;5035138;28;19956;-58
2021/04/22 05:41:52;;;;;;;;;;;19.30;49.20;;;;;;5037791;28;19925;-58
2021/04/22 05:44:18;;;;;;;;;;;19.30;48.90;;;;;;5033518;28;19933;-59
2021/04/22 05:46:44;;;;;;;;;;;19.30;49.10;;;;;;5021800;28;20479;-58
2021/04/22 05:49:11;;;;;;;;;;;19.30;48.90;;;;;;5036361;28;19976;-59
2021/04/22 05:51:38;;;;;;;;;;;19.30;48.70;;;;;;5041561;28;20292;-59
2021/04/22 05:54:05;;;;;;;;;;;19.30;48.40;;;;;;5048181;28;19956;-58
2021/04/22 05:56:31;;;;;;;;;;;19.30;48.20;;;;;;5061715;28;19929;-58
2021/04/22 05:58:57;;;;;;;;;;;19.30;48.00;;;;;;5063540;28;19925;-58
2021/04/22 06:01:23;;;;;;;;;;;19.30;47.80;;;;;;5057742;28;20825;-58
2021/04/22 06:03:50;;;;;;;;;;;19.30;47.70;;;;;;5052239;28;20038;-58
2021/04/22 06:06:16;;;;;;;;;;;19.30;47.70;;;;;;5064813;28;20292;-60
2021/04/22 06:08:42;;;;;;;;;;;19.30;47.60;;;;;;5055271;28;20286;-58
2021/04/22 06:11:09;;;;;;;;;;;19.30;47.40;;;;;;5062937;28;19970;-57
2021/04/22 06:13:35;;;;;;;;;;;19.30;49.20;;;;;;5071921;28;19924;-57
2021/04/22 06:16:02;;;;;;;;;;;19.30;47.70;;;;;;5071224;28;20395;-57
2021/04/22 06:18:28;;;;;;;;;;;19.40;47.50;;;;;;5070644;28;20407;-59
2021/04/22 06:20:54;;;;;;;;;;;19.40;47.20;;;;;;5069391;28;20296;-57
2021/04/22 06:23:28;;;;;;;;;;;19.40;46.60;;;;;;5065808;28;20790;-57
2021/04/22 06:25:54;;;;;;;;;;;19.50;46.50;;;;;;5065922;28;20458;-58
2021/04/22 06:28:21;;;;;;;;;;;19.50;45.60;;;;;;5065546;28;19929;-58
2021/04/22 06:30:47;;;;;;;;;;;19.50;45.80;;;;;;5064194;28;20134;-56
2021/04/22 06:33:14;;;;;;;;;;;19.60;45.90;;;;;;5066609;28;19924;-56
2021/04/22 06:35:40;;;;;;;;;;;19.60;45.50;;;;;;5071900;28;19928;-58
2021/04/22 06:38:06;;;;;;;;;;;19.60;45.20;;;;;;5070229;28;19961;-58
2021/04/22 06:40:32;;;;;;;;;;;19.60;46.00;;;;;;5062969;28;20448;-60
2021/04/22 06:43:01;;;;;;;;;;;19.70;46.10;;;;;;5070611;28;19928;-58
2021/04/22 06:45:27;;;;;;;;;;;19.70;46.30;;;;;;5065635;28;19932;-59
2021/04/22 06:47:54;;;;;;;;;;;19.70;46.50;;;;;;5069208;28;19925;-57
2021/04/22 06:50:21;;;;;;;;;;;19.80;46.60;;;;;;5065724;28;19929;-58
2021/04/22 06:52:48;;;;;;;;;;;19.80;45.90;;;;;;5066481;28;19924;-60
2021/04/22 06:55:16;;;;;;;;;;;19.80;47.70;;;;;;5057847;28;19929;-60
2021/04/22 06:57:56;;;;;;;;;;;19.70;47.50;;;;;;5065446;28;20009;-60
2021/04/22 07:00:23;;;;;;;;;;;19.60;45.70;;;;;;5047655;28;19935;-59
2021/04/22 07:02:49;;;;;;;;;;;19.60;44.40;;;;;;5066535;28;20643;-60
2021/04/22 07:05:16;;;;;;;;;;;19.50;44.10;;;;;;5062861;28;19932;-59
2021/04/22 07:07:43;;;;;;;;;;;19.50;43.60;;;;;;5064869;28;19935;-60
2021/04/22 07:10:10;;;;;;;;;;;19.50;44.00;;;;;;5065821;28;19951;-59
2021/04/22 07:12:56;;;;;;;;;;;19.40;42.70;;;;;;5067912;28;19924;-61
2021/04/22 07:15:22;;;;;;;;;;;19.40;43.90;;;;;;5067176;28;19932;-60
2021/04/22 07:17:53;;;;;;;;;;;19.50;44.60;;;;;;5067516;28;19924;-59
2021/04/22 07:20:21;;;;;;;;;;;19.80;45.50;;;;;;5067638;28;19924;-61
2021/04/22 07:23:12;;;;;;;;;;;19.90;45.00;;;;;;5069819;28;19932;-61
2021/04/22 07:25:39;;;;;;;;;;;19.90;44.20;;;;;;5056936;28;20575;-65
2021/04/22 07:28:06;;;;;;;;;;;19.90;43.50;;;;;;5064724;28;19955;-61
2021/04/22 07:30:33;;;;;;;;;;;19.90;43.30;;;;;;5068447;28;20440;-62
2021/04/22 07:32:59;;;;;;;;;;;19.90;43.40;;;;;;5067876;28;19928;-61
2021/04/22 07:35:26;;;;;;;;;;;20.00;43.90;;;;;;5066785;28;19924;-60
2021/04/22 07:37:52;;;;;;;;;;;20.00;43.70;;;;;;5069130;28;20331;-58
2021/04/22 07:40:20;;;;;;;;;;;20.00;43.60;;;;;;5069674;28;19932;-58
2021/04/22 07:43:01;;;;;;;;;;;20.10;43.10;;;;;;5065227;28;19936;-60
2021/04/22 07:45:30;;;;;;;;;;;20.10;42.30;;;;;;5067328;28;20383;-58
2021/04/22 07:47:56;;;;;;;;;;;20.10;43.10;;;;;;5063558;28;20347;-56
2021/04/22 07:50:23;;;;;;;;;;;20.10;42.90;;;;;;5069954;28;19925;-58
2021/04/22 07:52:50;;;;;;;;;;;20.20;42.80;;;;;;5065624;28;19963;-61
2021/04/22 07:55:17;;;;;;;;;;;20.20;42.30;;;;;;5066826;28;19932;-60
2021/04/22 07:57:44;;;;;;;;;;;20.20;42.40;;;;;;5066435;28;19924;-59
2021/04/22 08:00:11;;;;;;;;;;;20.30;42.70;;;;;;5066741;28;19936;-63
2021/04/22 08:02:39;;;;;;;;;;;20.30;41.70;;;;;;5056126;28;19924;-61
2021/04/22 08:05:07;;;;;;;;;;;20.30;41.40;;;;;;5055722;28;20537;-63
2021/04/22 08:07:33;;;;;;;;;;;20.30;41.70;;;;;;5055251;28;19936;-63
2021/04/22 08:09:59;;;;;;;;;;;20.30;41.20;;;;;;5060896;28;20454;-63
2021/04/22 08:12:26;;;;;;;;;;;20.30;40.90;;;;;;5065500;28;19932;-57
2021/04/22 08:14:56;;;;;;;;;;;20.20;40.80;;;;;;5065310;28;19924;-57
2021/04/22 08:17:23;;;;;;;;;;;20.30;41.20;;;;;;5061092;28;19978;-57
2021/04/22 08:19:49;;;;;;;;;;;20.40;42.10;;;;;;5065575;28;19929;-55
2021/04/22 08:22:15;;;;;;;;;;;20.50;41.60;;;;;;5064381;28;19931;-56
2021/04/22 08:24:41;;;;;;;;;;;20.50;41.30;;;;;;5064946;28;20293;-58
2021/04/22 08:27:08;;;;;;;;;;;20.50;40.80;;;;;;5063364;28;20441;-56
2021/04/22 08:29:34;;;;;;;;;;;20.50;42.20;;;;;;5064966;28;19966;-58
2021/04/22 08:32:00;;;;;;;;;;;20.60;42.10;;;;;;5059648;28;19932;-56
2021/04/22 08:34:28;;;;;;;;;;;20.60;41.60;;;;;;5066182;28;21480;-63
2021/04/22 08:36:54;;;;;;;;;;;20.60;40.90;;;;;;5065981;28;20532;-55
2021/04/22 08:39:20;;;;;;;;;;;20.60;41.00;;;;;;5063178;28;19931;-57
2021/04/22 08:41:47;;;;;;;;;;;20.70;41.20;;;;;;5063717;28;19932;-58
2021/04/22 08:44:13;;;;;;;;;;;20.70;40.80;;;;;;5064986;28;19938;-55
2021/04/22 08:46:39;;;;;;;;;;;20.60;40.00;;;;;;5046932;28;19931;-57
2021/04/22 08:49:07;;;;;;;;;;;20.60;38.70;;;;;;5063612;28;20775;-59
2021/04/22 08:51:33;;;;;;;;;;;20.50;38.40;;;;;;5064305;28;20007;-58
2021/04/22 08:53:59;;;;;;;;;;;20.50;39.20;;;;;;5055410;28;19956;-55
2021/04/22 08:56:26;;;;;;;;;;;20.50;39.60;;;;;;5066057;28;19964;-59
2021/04/22 08:58:52;;;;;;;;;;;20.50;39.70;;;;;;5064475;28;19940;-65
2021/04/22 09:01:19;;;;;;;;;;;20.40;39.60;;;;;;5063617;28;19932;-64
2021/04/22 09:03:47;;;;;;;;;;;20.50;41.30;;;;;;5047012;28;19933;-62
2021/04/22 09:06:14;;;;;;;;;;;20.70;42.90;;;;;;5063957;28;19960;-63
2021/04/22 09:08:44;;;;;;;;;;;20.90;43.40;;;;;;5065030;28;20399;-62
2021/04/22 09:11:11;;;;;;;;;;;21.00;44.20;;;;;;5061176;28;19925;-63
2021/04/22 09:13:38;;;;;;;;;;;21.10;43.50;;;;;;5062500;28;19935;-61
2021/04/22 09:16:06;;;;;;;;;;;21.20;44.30;;;;;;5062411;28;19925;-63
2021/04/22 09:18:49;;;;;;;;;;;21.30;44.60;;;;;;5062870;28;20290;-61
2021/04/22 09:21:17;;;;;;;;;;;21.30;45.40;;;;;;5063994;28;19928;-60
2021/04/22 09:23:53;;;;;;;;;;;21.40;44.90;;;;;;5064349;28;19979;-60
2021/04/22 09:26:20;;;;;;;;;;;21.50;45.40;;;;;;5061843;28;19924;-60
2021/04/22 09:28:47;;;;;;;;;;;21.50;44.80;;;;;;5062934;28;19925;-60
2021/04/22 09:31:23;;;;;;;;;;;21.60;44.90;;;;;;5064382;28;19929;-61
2021/04/22 09:34:04;;;;;;;;;;;21.60;45.20;;;;;;5061844;28;19928;-59
2021/04/22 09:36:38;;;;;;;;;;;21.70;44.80;;;;;;5063202;28;20442;-60
2021/04/22 09:39:05;;;;;;;;;;;21.70;45.30;;;;;;5067667;28;20024;-60
2021/04/22 09:41:33;;;;;;;;;;;21.80;44.80;;;;;;5067934;28;19935;-62
2021/04/22 09:44:02;;;;;;;;;;;21.80;44.00;;;;;;5068653;28;19951;-62
2021/04/22 09:46:29;;;;;;;;;;;21.80;44.00;;;;;;5069802;28;19948;-61
2021/04/22 09:48:56;;;;;;;;;;;21.90;44.60;;;;;;5069419;28;19936;-62
2021/04/22 09:51:31;;;;;;;;;;;21.90;44.50;;;;;;5067886;28;19931;-61
2021/04/22 09:54:04;;;;;;;;;;;21.90;43.90;;;;;;5047461;28;21343;-63
2021/04/22 09:56:38;;;;;;;;;;;22.00;45.10;;;;;;5046823;28;20607;-63
2021/04/22 09:59:05;;;;;;;;;;;22.00;45.10;;;;;;5030376;28;19959;-61
2021/04/22 10:01:33;;;;;;;;;;;22.10;44.80;;;;;;5042621;28;20388;-61
2021/04/22 10:04:00;;;;;;;;;;;22.20;44.40;;;;;;5047751;28;19932;-53
2021/04/22 10:06:36;;;;;;;;;;;22.10;42.50;;;;;;5050259;28;19929;-53
2021/04/22 10:09:02;;;;;;;;;;;21.80;42.60;;;;;;5031335;28;20419;-53
2021/04/22 10:11:28;;;;;;;;;;;21.70;43.00;;;;;;5051243;28;19952;-58
2021/04/22 10:13:54;;;;;;;;;;;21.70;43.10;;;;;;5047377;28;19937;-54
2021/04/22 10:16:30;;;;;;;;;;;21.60;43.20;;;;;;5052091;28;20340;-54
2021/04/22 10:18:56;;;;;;;;;;;21.50;43.40;;;;;;5047903;28;20453;-53
2021/04/22 10:21:22;;;;;;;;;;;21.50;43.40;;;;;;5046761;28;19929;-53
2021/04/22 10:23:51;;;;;;;;;;;21.50;43.30;;;;;;5049981;28;19932;-53
2021/04/22 10:26:18;;;;;;;;;;;21.40;43.50;;;;;;5042018;28;20006;-53
2021/04/22 10:28:44;;;;;;;;;;;21.40;43.30;;;;;;5045630;28;19925;-52
2021/04/22 10:31:10;;;;;;;;;;;21.30;43.50;;;;;;5042881;28;19991;-59
2021/04/22 10:33:36;;;;;;;;;;;21.30;43.40;;;;;;5041444;28;20277;-57
2021/04/22 10:36:03;;;;;;;;;;;21.30;43.60;;;;;;5046879;28;19931;-58
2021/04/22 10:38:30;;;;;;;;;;;21.30;43.80;;;;;;5044169;28;19932;-57
2021/04/22 10:40:57;;;;;;;;;;;21.30;43.90;;;;;;5028273;28;20019;-58
2021/04/22 10:43:24;;;;;;;;;;;21.20;43.90;;;;;;5036622;28;20794;-58
2021/04/22 10:45:52;;;;;;;;;;;21.20;44.10;;;;;;5046649;28;19955;-58
2021/04/22 10:48:18;;;;;;;;;;;21.20;44.10;;;;;;5043516;28;19933;-57
2021/04/22 10:50:48;;;;;;;;;;;21.20;44.20;;;;;;5046997;28;19925;-58
2021/04/22 10:53:15;;;;;;;;;;;21.20;44.30;;;;;;5052869;28;19931;-57
2021/04/22 10:55:45;;;;;;;;;;;21.20;44.30;;;;;;5068079;28;19975;-58
2021/04/22 10:58:19;;;;;;;;;;;21.10;44.20;;;;;;5058188;28;20297;-58
2021/04/22 11:00:50;;;;;;;;;;;21.20;44.50;;;;;;5067103;28;19925;-53
2021/04/22 11:03:29;;;;;;;;;;;21.10;44.50;;;;;;5067568;28;19928;-54
2021/04/22 11:05:56;;;;;;;;;;;21.10;44.50;;;;;;5063696;28;21904;-54
2021/04/22 11:08:51;;;;;;;;;;;21.10;44.60;;;;;;5067408;28;19925;-54
2021/04/22 11:11:27;;;;;;;;;;;21.00;44.60;;;;;;5036339;28;19932;-53
2021/04/22 11:14:04;;;;;;;;;;;21.00;44.60;;;;;;5069456;28;19928;-54
2021/04/22 11:16:31;;;;;;;;;;;21.00;44.70;;;;;;5067975;28;20426;-53
2021/04/22 11:18:57;;;;;;;;;;;21.00;44.50;;;;;;5061877;28;19932;-54
2021/04/22 11:21:26;;;;;;;;;;;21.00;44.40;;;;;;5066800;28;20682;-54
2021/04/22 11:23:54;;;;;;;;;;;21.00;44.60;;;;;;5067911;28;19932;-53
2021/04/22 11:26:26;;;;;;;;;;;21.00;44.80;;;;;;5065113;28;19925;-54
2021/04/22 11:28:53;;;;;;;;;;;21.00;44.90;;;;;;5068815;28;19925;-52
2021/04/22 11:31:21;;;;;;;;;;;21.00;44.90;;;;;;5068263;28;19932;-54
2021/04/22 11:33:50;;;;;;;;;;;21.00;44.90;;;;;;5068453;28;19932;-53
2021/04/22 11:36:18;;;;;;;;;;;20.90;44.90;;;;;;5068383;28;19924;-53
2021/04/22 11:38:48;;;;;;;;;;;21.00;45.00;;;;;;5066748;28;20403;-53
2021/04/22 11:41:14;;;;;;;;;;;21.00;45.00;;;;;;5066310;28;19931;-53
2021/04/22 11:43:40;;;;;;;;;;;21.00;44.60;;;;;;5068146;28;19924;-52
2021/04/22 11:46:08;;;;;;;;;;;20.90;44.20;;;;;;5068520;28;20348;-53
2021/04/22 11:48:41;;;;;;;;;;;20.90;44.60;;;;;;5069010;28;20297;-53
2021/04/22 11:51:09;;;;;;;;;;;20.90;44.90;;;;;;5067261;28;20094;-53
2021/04/22 11:53:37;;;;;;;;;;;20.90;45.10;;;;;;5067893;28;20269;-53
2021/04/22 11:56:05;;;;;;;;;;;20.90;44.80;;;;;;5061155;28;20341;-54
2021/04/22 11:58:33;;;;;;;;;;;20.90;44.70;;;;;;5060407;28;19939;-53
2021/04/22 12:01:09;;;;;;;;;;;20.80;45.10;;;;;;5065680;28;19932;-58
2021/04/22 12:03:37;;;;;;;;;;;20.90;45.10;;;;;;5060185;28;19928;-57
2021/04/22 12:06:05;;;;;;;;;;;20.90;45.20;;;;;;5060737;28;19955;-58
2021/04/22 12:08:33;;;;;;;;;;;20.90;45.30;;;;;;5060669;28;19932;-57
2021/04/22 12:11:00;;;;;;;;;;;20.90;45.40;;;;;;5062924;28;19947;-53
2021/04/22 12:13:27;;;;;;;;;;;20.90;45.30;;;;;;5058520;28;19939;-55
2021/04/22 12:15:57;;;;;;;;;;;20.90;45.40;;;;;;5049537;28;19955;-53
2021/04/22 12:18:23;;;;;;;;;;;20.90;45.40;;;;;;5048351;28;20511;-53
2021/04/22 12:20:50;;;;;;;;;;;20.90;45.30;;;;;;5065444;28;20588;-54
2021/04/22 12:23:26;;;;;;;;;;;20.90;45.40;;;;;;5064805;28;20342;-52
2021/04/22 12:26:23;;;;;;;;;;;20.90;45.30;;;;;;5048214;28;19931;-55
2021/04/22 12:28:55;;;;;;;;;;;20.90;45.40;;;;;;5058737;28;20574;-64
2021/04/22 12:31:25;;;;;;;;;;;21.00;46.00;;;;;;5062063;28;19932;-60
2021/04/22 12:33:52;;;;;;;;;;;21.10;46.70;;;;;;5060091;28;19936;-67
2021/04/22 12:36:19;;;;;;;;;;;21.20;46.40;;;;;;5062895;28;20381;-61
2021/04/22 12:38:45;;;;;;;;;;;21.30;46.50;;;;;;5056767;28;19928;-62
2021/04/22 12:41:12;;;;;;;;;;;21.40;46.80;;;;;;5058097;28;19928;-61
2021/04/22 12:43:40;;;;;;;;;;;21.50;46.20;;;;;;5061732;28;20365;-58
2021/04/22 12:46:08;;;;;;;;;;;21.60;46.40;;;;;;5066079;28;19924;-59
2021/04/22 12:48:35;;;;;;;;;;;21.70;46.00;;;;;;5062104;28;19931;-59
2021/04/22 12:51:02;;;;;;;;;;;21.70;45.90;;;;;;5063087;28;19931;-61
2021/04/22 12:53:29;;;;;;;;;;;21.80;46.20;;;;;;5063614;28;19933;-61
2021/04/22 12:55:58;;;;;;;;;;;21.80;46.30;;;;;;5045415;28;19928;-58
2021/04/22 12:58:29;;;;;;;;;;;21.70;45.60;;;;;;5058052;28;20795;-57
2021/04/22 13:00:57;;;;;;;;;;;21.60;45.30;;;;;;5062984;28;20986;-64
2021/04/22 13:03:25;;;;;;;;;;;21.70;45.40;;;;;;5061526;28;19934;-66
2021/04/22 13:05:56;;;;;;;;;;;21.80;46.40;;;;;;5052662;28;19975;-66
2021/04/22 13:08:23;;;;;;;;;;;21.90;46.20;;;;;;5058912;28;19929;-66
2021/04/22 13:10:50;;;;;;;;;;;22.00;46.30;;;;;;5057242;28;20542;-62
2021/04/22 13:13:17;;;;;;;;;;;22.10;46.00;;;;;;5059842;28;19950;-62
2021/04/22 13:15:43;;;;;;;;;;;22.10;44.90;;;;;;5061391;28;20493;-63
2021/04/22 13:18:11;;;;;;;;;;;22.20;45.20;;;;;;5064063;28;19970;-62
2021/04/22 13:20:44;;;;;;;;;;;22.20;45.30;;;;;;5058574;28;19929;-62
2021/04/22 13:23:10;;;;;;;;;;;22.30;44.60;;;;;;5062602;28;20405;-63
2021/04/22 13:25:37;;;;;;;;;;;22.40;45.70;;;;;;5062891;28;19932;-60
2021/04/22 13:28:15;;;;;;;;;;;22.40;45.00;;;;;;5063452;28;19928;-61
2021/04/22 13:30:43;;;;;;;;;;;22.50;45.40;;;;;;5062028;28;19930;-62
2021/04/22 13:33:10;;;;;;;;;;;22.60;44.70;;;;;;5060658;28;19936;-62
2021/04/22 13:35:37;;;;;;;;;;;22.60;44.40;;;;;;5060530;28;19924;-65
2021/04/22 13:38:14;;;;;;;;;;;22.70;45.00;;;;;;5047720;28;19928;-63
2021/04/22 13:40:41;;;;;;;;;;;22.70;45.00;;;;;;5061091;28;19932;-64
2021/04/22 13:43:08;;;;;;;;;;;22.80;44.70;;;;;;5060913;28;20328;-63
2021/04/22 13:45:34;;;;;;;;;;;22.80;44.90;;;;;;5061521;28;19936;-64
2021/04/22 13:48:15;;;;;;;;;;;22.90;45.40;;;;;;5063311;28;19925;-62
2021/04/22 13:50:41;;;;;;;;;;;22.90;44.90;;;;;;5062635;28;19925;-61
2021/04/22 13:53:09;;;;;;;;;;;23.00;45.10;;;;;;5063008;28;19925;-63
2021/04/22 13:55:42;;;;;;;;;;;23.00;45.00;;;;;;5063132;28;19925;-64
2021/04/22 13:58:09;;;;;;;;;;;23.10;45.30;;;;;;5059375;28;19924;-62
2021/04/22 14:00:35;;;;;;;;;;;23.10;45.40;;;;;;5062609;28;19931;-63
2021/04/22 14:03:06;;;;;;;;;;;23.20;45.60;;;;;;5061822;28;19932;-65
2021/04/22 14:05:36;;;;;;;;;;;23.20;45.00;;;;;;5061575;28;19924;-61
2021/04/22 14:08:03;;;;;;;;;;;23.20;45.90;;;;;;5061384;28;19925;-60
2021/04/22 14:10:34;;;;;;;;;;;23.30;45.40;;;;;;5062422;28;19929;-63
2021/04/22 14:13:00;;;;;;;;;;;23.30;45.60;;;;;;5060088;28;19939;-61
2021/04/22 14:15:27;;;;;;;;;;;23.30;44.90;;;;;;5063987;28;19924;-60
2021/04/22 14:17:53;;;;;;;;;;;23.40;45.10;;;;;;5062979;28;19932;-60
2021/04/22 14:20:19;;;;;;;;;;;23.40;45.30;;;;;;5061597;28;19940;-62